Time;durP1;ratioP1;P1;durP2;ratioP2;P2;SDS_P1;SDS_P2;PMS_P1;PMS_P2;Temp;Humidity;BMP_temperature;BMP_pressure;BME280_temperature;BME280_humidity;BME280_pressure;Samples;Min_cycle;Max_cycle;Signal;HPM_P1;HPM_P2
2020/12/29 00:02:15;;;;;;;31.02;18.50;;;;;;;2.60;100.00;97622.16;4970325;28;20046;-86
2020/12/29 00:04:40;;;;;;;29.65;19.35;;;;;;;2.59;100.00;97631.09;4970200;28;20035;-89
2020/12/29 00:07:05;;;;;;;27.20;19.02;;;;;;;2.61;100.00;97626.44;4968594;28;20073;-84
2020/12/29 00:09:31;;;;;;;30.13;18.55;;;;;;;2.56;100.00;97629.66;4955074;28;20408;-87
2020/12/29 00:11:56;;;;;;;28.70;18.95;;;;;;;2.55;100.00;97624.53;4956205;28;20399;-85
2020/12/29 00:14:25;;;;;;;26.52;17.80;;;;;;;2.51;100.00;97625.94;4958979;28;20399;-82
2020/12/29 00:16:51;;;;;;;30.50;19.60;;;;;;;2.41;100.00;97624.41;4970175;28;20117;-87
2020/12/29 00:19:19;;;;;;;30.83;20.13;;;;;;;2.41;100.00;97628.88;4969343;28;20130;-85
2020/12/29 00:21:45;;;;;;;31.92;19.45;;;;;;;2.33;100.00;97627.22;4968511;28;20401;-82
2020/12/29 00:24:10;;;;;;;32.47;20.20;;;;;;;2.28;100.00;97631.44;4935161;28;20040;-84
2020/12/29 00:26:36;;;;;;;32.83;19.25;;;;;;;2.22;100.00;97633.81;4972438;28;20046;-84
2020/12/29 00:29:02;;;;;;;33.75;20.20;;;;;;;2.14;100.00;97635.75;4953662;28;20102;-84
2020/12/29 00:31:27;;;;;;;34.30;20.30;;;;;;;2.03;100.00;97626.47;4955194;28;20058;-82
2020/12/29 00:33:58;;;;;;;40.00;21.63;;;;;;;1.93;100.00;97629.44;4955405;28;20356;-87
2020/12/29 00:36:24;;;;;;;40.78;22.58;;;;;;;1.87;100.00;97631.97;4956038;28;20050;-88
2020/12/29 00:38:49;;;;;;;43.10;24.05;;;;;;;1.82;100.00;97634.38;4955516;28;20038;-87
2020/12/29 00:41:15;;;;;;;47.50;24.63;;;;;;;1.79;100.00;97635.56;4939149;28;20558;-81
2020/12/29 00:43:42;;;;;;;46.30;23.90;;;;;;;1.73;100.00;97636.31;4953740;28;20574;-87
2020/12/29 00:46:12;;;;;;;51.47;25.33;;;;;;;1.67;100.00;97637.03;4971601;28;20046;-89
2020/12/29 00:48:38;;;;;;;64.63;26.98;;;;;;;1.61;100.00;97640.41;4970231;28;20035;-85
2020/12/29 00:51:09;;;;;;;62.88;27.83;;;;;;;1.55;100.00;97634.88;4936938;28;20039;-86
2020/12/29 00:53:35;;;;;;;55.90;25.48;;;;;;;1.52;100.00;97635.22;4939414;28;20035;-89
2020/12/29 00:56:05;;;;;;;46.67;24.15;;;;;;;1.45;100.00;97629.06;4967297;28;20070;-84
2020/12/29 00:58:30;;;;;;;47.58;24.27;;;;;;;1.38;100.00;97622.84;4954180;28;20042;-87
2020/12/29 01:00:56;;;;;;;50.42;26.17;;;;;;;1.41;100.00;97626.94;4965846;28;20043;-82
2020/12/29 01:03:22;;;;;;;45.15;23.67;;;;;;;1.37;100.00;97625.69;4954163;28;22229;-87
2020/12/29 01:05:48;;;;;;;44.10;23.45;;;;;;;1.38;100.00;97630.75;4970308;28;20062;-84
2020/12/29 01:08:13;;;;;;;45.38;24.40;;;;;;;1.37;100.00;97636.25;4954353;28;20051;-84
2020/12/29 01:10:40;;;;;;;47.95;24.95;;;;;;;1.30;100.00;97646.72;4937754;28;20392;-84
2020/12/29 01:13:08;;;;;;;50.10;23.88;;;;;;;1.27;100.00;97633.91;4967302;28;20142;-86
2020/12/29 01:15:34;;;;;;;63.67;27.90;;;;;;;1.25;100.00;97644.63;4954514;28;20109;-88
2020/12/29 01:17:59;;;;;;;58.60;26.70;;;;;;;1.23;100.00;97640.53;4949044;28;20067;-83
2020/12/29 01:20:25;;;;;;;53.33;25.98;;;;;;;1.19;100.00;97647.19;4953503;28;20483;-86
2020/12/29 01:22:54;;;;;;;72.25;27.85;;;;;;;1.12;100.00;97640.00;4969014;28;20049;-85
2020/12/29 01:25:23;;;;;;;52.35;24.25;;;;;;;1.03;100.00;97638.41;4954896;28;20121;-86
2020/12/29 01:27:48;;;;;;;60.13;29.60;;;;;;;1.12;100.00;97647.06;4970193;28;20065;-83
2020/12/29 01:30:15;;;;;;;53.35;27.27;;;;;;;1.12;100.00;97647.91;4963946;28;20279;-88
2020/12/29 01:32:41;;;;;;;50.03;24.05;;;;;;;1.15;100.00;97657.25;4956882;28;20479;-87
2020/12/29 01:35:07;;;;;;;52.65;27.80;;;;;;;1.13;100.00;97657.47;4970713;28;20042;-85
2020/12/29 01:37:33;;;;;;;48.85;25.67;;;;;;;1.10;100.00;97663.09;4969749;28;20054;-85
2020/12/29 01:39:58;;;;;;;56.35;28.30;;;;;;;1.04;100.00;97663.03;4969391;28;20066;-82
2020/12/29 01:42:24;;;;;;;57.13;30.33;;;;;;;1.05;100.00;97660.19;4954300;28;20126;-84
2020/12/29 01:44:49;;;;;;;59.60;29.05;;;;;;;1.05;100.00;97668.09;4953566;28;20488;-89
2020/12/29 01:47:16;;;;;;;58.63;28.83;;;;;;;1.03;100.00;97662.16;4952758;28;20039;-84
2020/12/29 01:49:47;;;;;;;49.53;26.67;;;;;;;0.98;100.00;97669.00;4971273;28;20052;-84
2020/12/29 01:52:14;;;;;;;56.60;28.25;;;;;;;0.96;100.00;97665.72;4992779;28;20042;-84
2020/12/29 01:54:45;;;;;;;53.83;28.65;;;;;;;0.97;100.00;97673.47;4989094;28;20550;-84
2020/12/29 01:57:12;;;;;;;56.08;29.77;;;;;;;0.98;100.00;97669.84;4972388;28;20427;-86
2020/12/29 01:59:38;;;;;;;58.28;29.90;;;;;;;1.00;100.00;97674.91;4949284;28;20051;-85
2020/12/29 02:02:03;;;;;;;58.42;33.05;;;;;;;1.01;100.00;97666.03;4952655;28;20034;-88
2020/12/29 02:04:29;;;;;;;62.58;30.73;;;;;;;1.04;100.00;97673.59;4934960;28;20038;-87
2020/12/29 02:06:55;;;;;;;59.88;31.05;;;;;;;1.02;100.00;97670.28;4957382;28;20034;-84
2020/12/29 02:09:24;;;;;;;63.33;32.97;;;;;;;1.08;100.00;97665.09;4963619;28;20109;-86
2020/12/29 02:11:54;;;;;;;61.90;32.25;;;;;;;1.08;100.00;97670.38;4966043;28;20660;-86
2020/12/29 02:14:20;;;;;;;56.85;30.77;;;;;;;1.08;100.00;97665.09;4966256;28;20042;-84
2020/12/29 02:16:45;;;;;;;63.30;34.30;;;;;;;1.14;100.00;97676.75;4969739;28;20053;-85
2020/12/29 02:19:12;;;;;;;56.88;34.25;;;;;;;1.20;100.00;97681.31;4957769;28;20034;-86
2020/12/29 02:21:38;;;;;;;59.22;32.80;;;;;;;1.25;100.00;97681.59;4970853;28;20047;-87
2020/12/29 02:24:06;;;;;;;58.20;33.03;;;;;;;1.29;100.00;97690.00;4973883;28;20387;-87
2020/12/29 02:26:33;;;;;;;60.55;34.85;;;;;;;1.37;100.00;97689.09;4968929;28;20042;-88
2020/12/29 02:29:00;;;;;;;52.58;31.80;;;;;;;1.31;100.00;97691.44;4954771;28;20047;-85
2020/12/29 02:31:28;;;;;;;55.25;33.75;;;;;;;1.30;100.00;97689.81;4970467;28;20379;-91
2020/12/29 02:34:00;;;;;;;51.75;30.48;;;;;;;1.34;100.00;97695.56;4994238;28;20113;-81
2020/12/29 02:36:26;;;;;;;53.67;29.98;;;;;;;1.32;100.00;97695.75;4960937;28;20117;-82
2020/12/29 02:38:54;;;;;;;55.90;30.85;;;;;;;1.33;100.00;97704.50;4956201;28;20142;-87
2020/12/29 02:41:25;;;;;;;53.72;32.03;;;;;;;1.34;100.00;97700.84;4962729;28;20487;-87
2020/12/29 02:43:53;;;;;;;57.85;32.83;;;;;;;1.33;100.00;97709.78;4966346;28;20051;-87
2020/12/29 02:46:18;;;;;;;65.00;37.92;;;;;;;1.33;100.00;97707.94;4939339;28;20069;-83
2020/12/29 02:48:45;;;;;;;58.60;35.63;;;;;;;1.37;100.00;97704.94;4952863;28;20063;-85
2020/12/29 02:51:14;;;;;;;70.32;37.75;;;;;;;1.37;100.00;97703.13;4964626;28;20050;-87
2020/12/29 02:53:42;;;;;;;71.90;41.28;;;;;;;1.42;100.00;97713.97;4972664;28;20447;-84
2020/12/29 02:56:07;;;;;;;63.33;38.90;;;;;;;1.41;100.00;97715.00;4949595;28;20554;-87
2020/12/29 02:58:32;;;;;;;67.03;39.40;;;;;;;1.43;100.00;97714.78;4940994;28;20038;-85
2020/12/29 03:00:58;;;;;;;81.30;42.22;;;;;;;1.46;100.00;97720.53;4952575;28;20075;-82
2020/12/29 03:03:32;;;;;;;73.88;42.50;;;;;;;1.49;100.00;97719.34;4941151;28;20122;-82
2020/12/29 03:05:58;;;;;;;78.82;42.67;;;;;;;1.50;100.00;97727.09;4975298;28;20046;-85
2020/12/29 03:08:27;;;;;;;76.15;43.45;;;;;;;1.49;100.00;97716.69;4933814;28;20046;-83
2020/12/29 03:10:56;;;;;;;75.28;44.70;;;;;;;1.50;100.00;97727.09;4962589;28;20070;-87
2020/12/29 03:13:21;;;;;;;70.93;41.85;;;;;;;1.53;100.00;97724.09;4953165;28;20065;-86
2020/12/29 03:15:47;;;;;;;68.22;39.75;;;;;;;1.50;100.00;97721.81;4963178;28;20066;-83
2020/12/29 03:18:13;;;;;;;67.05;42.92;;;;;;;1.56;100.00;97721.09;4956813;28;20042;-87
2020/12/29 03:20:39;;;;;;;61.75;39.72;;;;;;;1.58;100.00;97729.66;4956837;28;20089;-82
2020/12/29 03:23:05;;;;;;;58.50;37.83;;;;;;;1.56;100.00;97731.66;4955505;28;20063;-88
2020/12/29 03:25:33;;;;;;;57.45;37.58;;;;;;;1.57;100.00;97735.13;4941228;28;20066;-86
2020/12/29 03:27:58;;;;;;;68.85;41.67;;;;;;;1.55;100.00;97735.31;4940929;28;20123;-89
2020/12/29 03:30:24;;;;;;;59.55;39.33;;;;;;;1.56;100.00;97739.59;4941930;28;20134;-86
2020/12/29 03:32:49;;;;;;;63.80;40.67;;;;;;;1.55;100.00;97734.47;4973661;28;20122;-88
2020/12/29 03:35:14;;;;;;;67.95;40.47;;;;;;;1.57;100.00;97743.88;4970882;28;20051;-86
2020/12/29 03:37:40;;;;;;;58.38;39.28;;;;;;;1.59;100.00;97746.34;4966255;28;20047;-83
2020/12/29 03:40:15;;;;;;;55.67;38.80;;;;;;;1.64;100.00;97745.78;4954908;28;20105;-82
2020/12/29 03:42:41;;;;;;;59.67;38.00;;;;;;;1.65;100.00;97747.44;4954098;28;20042;-85
2020/12/29 03:45:09;;;;;;;59.00;38.88;;;;;;;1.65;100.00;97742.16;4957610;28;20081;-85
2020/12/29 03:47:34;;;;;;;54.58;36.60;;;;;;;1.64;100.00;97745.78;4969313;28;21363;-86
2020/12/29 03:50:00;;;;;;;57.25;38.17;;;;;;;1.69;100.00;97736.31;4968337;28;20066;-87
2020/12/29 03:52:31;;;;;;;52.30;35.25;;;;;;;1.78;100.00;97744.97;4959418;28;20049;-89
2020/12/29 03:54:57;;;;;;;47.20;34.45;;;;;;;1.79;100.00;97747.44;4962609;28;20039;-82
2020/12/29 03:57:22;;;;;;;48.88;35.33;;;;;;;1.79;100.00;97751.91;4941273;28;20045;-87
2020/12/29 03:59:48;;;;;;;48.20;34.55;;;;;;;1.77;100.00;97754.72;4973216;28;20475;-86
2020/12/29 04:02:14;;;;;;;50.03;34.92;;;;;;;1.74;100.00;97754.28;4963512;28;20050;-86
2020/12/29 04:04:39;;;;;;;49.92;34.53;;;;;;;1.74;100.00;97759.56;4956859;28;20051;-86
2020/12/29 04:07:05;;;;;;;54.95;39.35;;;;;;;1.72;100.00;97757.09;4940718;28;20047;-85
2020/12/29 04:09:31;;;;;;;60.92;40.55;;;;;;;1.68;100.00;97758.47;4954930;28;20499;-85
2020/12/29 04:11:57;;;;;;;50.97;34.22;;;;;;;1.75;100.00;97764.66;4954370;28;20066;-85
2020/12/29 04:14:23;;;;;;;46.90;30.33;;;;;;;1.72;100.00;97762.38;4952865;28;20050;-84
2020/12/29 04:16:49;;;;;;;46.80;32.88;;;;;;;1.75;100.00;97766.47;4954497;28;20047;-88
2020/12/29 04:19:16;;;;;;;42.85;29.35;;;;;;;1.75;100.00;97777.06;4961926;28;20050;-83
2020/12/29 04:21:43;;;;;;;44.78;29.80;;;;;;;1.75;100.00;97782.34;4973050;28;20042;-90
2020/12/29 04:24:09;;;;;;;41.42;28.08;;;;;;;1.74;100.00;97780.72;4964679;28;20089;-89
2020/12/29 04:26:36;;;;;;;42.88;29.73;;;;;;;1.72;100.00;97778.22;4955616;28;20070;-85
2020/12/29 04:29:07;;;;;;;46.00;30.45;;;;;;;1.72;100.00;97782.72;4973958;28;20475;-85
2020/12/29 04:31:34;;;;;;;41.97;29.27;;;;;;;1.73;100.00;97789.66;4960899;28;20050;-86
2020/12/29 04:34:00;;;;;;;37.55;27.80;;;;;;;1.71;100.00;97784.53;4953150;28;20380;-86
2020/12/29 04:36:28;;;;;;;43.80;26.15;;;;;;;1.68;100.00;97794.66;4953930;28;20047;-84
2020/12/29 04:38:53;;;;;;;39.00;27.92;;;;;;;1.66;100.00;97786.06;4954742;28;20539;-85
2020/12/29 04:41:21;;;;;;;41.38;27.92;;;;;;;1.68;100.00;97789.38;4946626;28;20043;-86
2020/12/29 04:43:49;;;;;;;44.13;29.05;;;;;;;1.60;100.00;97792.09;4947123;28;20050;-85
2020/12/29 04:46:16;;;;;;;34.15;25.55;;;;;;;1.61;100.00;97786.59;4957327;28;20517;-84
2020/12/29 04:48:43;;;;;;;35.95;26.42;;;;;;;1.51;100.00;97802.72;4958852;28;20050;-83
2020/12/29 04:51:11;;;;;;;40.40;26.42;;;;;;;1.38;100.00;97796.41;4954873;28;20423;-86
2020/12/29 04:53:46;;;;;;;41.25;27.92;;;;;;;1.33;100.00;97799.59;4972928;28;20050;-87
2020/12/29 04:56:15;;;;;;;48.00;29.35;;;;;;;1.21;100.00;97806.28;4969313;28;20187;-83
2020/12/29 04:58:40;;;;;;;45.15;31.45;;;;;;;1.17;100.00;97811.13;4955649;28;20042;-82
2020/12/29 05:01:08;;;;;;;50.90;33.28;;;;;;;1.15;100.00;97809.66;4938430;28;20681;-86
2020/12/29 05:03:45;;;;;;;46.15;31.83;;;;;;;1.09;100.00;97812.03;4954304;28;20042;-83
2020/12/29 05:06:12;;;;;;;47.22;31.48;;;;;;;1.01;100.00;97817.34;4966707;28;20066;-85
2020/12/29 05:08:46;;;;;;;51.22;34.65;;;;;;;0.98;100.00;97824.78;4954504;28;20039;-85
2020/12/29 05:11:18;;;;;;;57.20;36.38;;;;;;;0.89;100.00;97830.16;4951836;28;20039;-83
2020/12/29 05:13:46;;;;;;;60.63;35.65;;;;;;;0.85;100.00;97839.41;4964736;28;20041;-91
2020/12/29 05:16:13;;;;;;;56.38;35.95;;;;;;;0.76;100.00;97840.44;4971573;28;20127;-87
2020/12/29 05:18:46;;;;;;;63.30;42.08;;;;;;;0.74;100.00;97841.59;4965460;28;20066;-86
2020/12/29 05:21:13;;;;;;;68.97;45.33;;;;;;;0.77;100.00;97841.25;4972876;28;20046;-83
2020/12/29 05:23:40;;;;;;;76.07;49.03;;;;;;;0.80;100.00;97848.84;4952678;28;20038;-84
2020/12/29 05:26:06;;;;;;;74.53;46.20;;;;;;;0.90;100.00;97847.63;4962330;28;20062;-87
2020/12/29 05:28:37;;;;;;;62.50;42.92;;;;;;;0.96;100.00;97855.84;4967982;28;20713;-85
2020/12/29 05:31:16;;;;;;;62.30;43.47;;;;;;;1.00;100.00;97852.66;4970302;28;20046;-88
2020/12/29 05:33:46;;;;;;;63.45;42.03;;;;;;;1.00;100.00;97855.31;4968740;28;20039;-84
2020/12/29 05:36:17;;;;;;;57.78;39.95;;;;;;;1.02;100.00;97860.44;4951820;28;20428;-86
2020/12/29 05:38:44;;;;;;;58.40;41.20;;;;;;;0.98;100.00;97869.69;4948504;28;20412;-86
2020/12/29 05:41:20;;;;;;;62.05;43.80;;;;;;;1.06;100.00;97865.16;4955439;28;20042;-84
2020/12/29 05:44:00;;;;;;;59.33;33.47;;;;;;;1.10;100.00;97861.19;4971224;28;20046;-86
2020/12/29 05:46:29;;;;;;;59.60;36.67;;;;;;;1.16;100.00;97869.41;4969763;28;20157;-86
2020/12/29 05:48:57;;;;;;;56.42;39.35;;;;;;;1.21;100.00;97864.41;4976396;28;20039;-82
2020/12/29 05:51:25;;;;;;;58.53;37.97;;;;;;;1.27;100.00;97864.53;4960270;28;20649;-85
2020/12/29 05:53:56;;;;;;;54.03;35.40;;;;;;;1.27;100.00;97866.38;4969055;28;20396;-84
2020/12/29 05:56:22;;;;;;;54.92;37.80;;;;;;;1.36;100.00;97865.31;4952186;28;20045;-83
2020/12/29 05:58:47;;;;;;;51.35;34.70;;;;;;;1.32;100.00;97869.28;4957958;28;20039;-86
2020/12/29 06:01:12;;;;;;;49.80;35.92;;;;;;;1.36;100.00;97870.59;4951686;28;20499;-85
2020/12/29 06:03:40;;;;;;;48.90;30.42;;;;;;;1.38;100.00;97868.56;4951549;28;20103;-86
2020/12/29 06:06:07;;;;;;;48.20;34.17;;;;;;;1.43;100.00;97868.06;4954361;28;20046;-89
2020/12/29 06:08:35;;;;;;;44.92;30.90;;;;;;;1.47;100.00;97870.19;4936635;29;20047;-88
2020/12/29 06:11:05;;;;;;;48.67;32.35;;;;;;;1.48;100.00;97871.00;4964649;28;20042;-85
2020/12/29 06:13:47;;;;;;;44.33;26.65;;;;;;;1.48;100.00;97871.00;4958386;28;20053;-85
2020/12/29 06:16:17;;;;;;;44.33;31.80;;;;;;;1.54;100.00;97881.66;4954097;28;20049;-84
2020/12/29 06:18:48;;;;;;;45.45;30.42;;;;;;;1.56;100.00;97894.72;4980590;28;20046;-85
2020/12/29 06:21:14;;;;;;;46.85;32.67;;;;;;;1.57;100.00;97883.13;4975001;28;20376;-89
2020/12/29 06:23:50;;;;;;;43.33;26.13;;;;;;;1.57;100.00;97891.88;4972363;28;20491;-85
2020/12/29 06:26:19;;;;;;;42.38;29.83;;;;;;;1.60;100.00;97900.47;4969315;28;20047;-84
2020/12/29 06:28:48;;;;;;;;;;;;;;;1.61;100.00;97897.63;4954494;28;20046;-83
2020/12/29 06:31:35;;;;;;;48.78;31.73;;;;;;;1.56;100.00;97911.41;4963886;28;19968;-83
2020/12/29 06:34:04;;;;;;;45.88;30.00;;;;;;;1.59;100.00;97910.22;4970417;28;20030;-85
2020/12/29 06:36:35;;;;;;;44.03;30.30;;;;;;;1.58;100.00;97912.06;4964402;28;20435;-82
2020/12/29 06:39:08;;;;;;;44.22;31.30;;;;;;;1.63;100.00;97913.31;4970054;28;20046;-85
2020/12/29 06:41:34;;;;;;;41.85;28.55;;;;;;;1.66;100.00;97921.72;4938552;28;20438;-86
2020/12/29 06:44:03;;;;;;;39.63;30.50;;;;;;;1.68;100.00;97913.63;4945482;28;20038;-86
2020/12/29 06:46:35;;;;;;;44.30;28.23;;;;;;;1.70;100.00;97922.19;4967514;28;20035;-89
2020/12/29 06:49:26;;;;;;;39.25;30.95;;;;;;;1.70;100.00;97927.50;4953890;28;20134;-84
2020/12/29 06:52:17;;;;;;;38.55;28.67;;;;;;;1.69;100.00;97933.75;4939795;29;20031;-87
2020/12/29 06:55:01;;;;;;;38.15;28.73;;;;;;;1.66;100.00;97942.03;4958928;28;20428;-87
2020/12/29 06:57:47;;;;;;;43.28;27.17;;;;;;;1.67;100.00;97941.03;4944873;28;20088;-87
2020/12/29 07:00:13;;;;;;;37.67;26.80;;;;;;;1.63;100.00;97950.34;4985580;28;20054;-88
2020/12/29 07:02:44;;;;;;;37.92;25.83;;;;;;;1.64;100.00;97955.47;4990980;28;21105;-87
2020/12/29 07:05:24;;;;;;;39.45;28.48;;;;;;;1.63;100.00;97953.78;4987000;28;20073;-88
2020/12/29 07:08:00;;;;;;;42.70;29.60;;;;;;;1.63;100.00;97964.38;4975236;28;20117;-87
2020/12/29 07:10:41;;;;;;;43.17;31.67;;;;;;;1.60;100.00;97954.16;4963355;28;20043;-87
2020/12/29 07:13:17;;;;;;;43.78;26.95;;;;;;;1.56;100.00;97966.09;4951137;28;20038;-89
2020/12/29 07:15:45;;;;;;;40.50;31.45;;;;;;;1.61;100.00;97968.19;4978139;28;20051;-83
2020/12/29 07:18:26;;;;;;;43.92;32.80;;;;;;;1.64;100.00;97970.47;4969668;28;20047;-85
2020/12/29 07:20:54;;;;;;;46.55;33.90;;;;;;;1.61;100.00;97976.94;4967796;28;20035;-87
2020/12/29 07:23:21;;;;;;;48.72;30.98;;;;;;;1.61;100.00;97984.03;4954924;28;20480;-85
2020/12/29 07:25:49;;;;;;;41.75;26.98;;;;;;;1.58;100.00;97987.84;4976346;28;20205;-82
2020/12/29 07:28:24;;;;;;;48.35;32.65;;;;;;;1.61;100.00;97989.31;4937609;28;20047;-83
2020/12/29 07:30:50;;;;;;;43.67;31.38;;;;;;;1.61;100.00;97992.78;4972540;28;20042;-83
2020/12/29 07:33:20;;;;;;;40.72;32.38;;;;;;;1.65;100.00;98003.84;4971795;28;20047;-90
2020/12/29 07:35:46;;;;;;;38.65;25.60;;;;;;;1.61;100.00;98005.19;4970891;28;20137;-86
2020/12/29 07:38:14;;;;;;;42.30;31.45;;;;;;;1.65;100.00;98009.16;4940110;28;20133;-88
2020/12/29 07:40:41;;;;;;;40.67;27.50;;;;;;;1.61;100.00;98019.22;4973499;28;20039;-85
2020/12/29 07:43:07;;;;;;;40.17;28.95;;;;;;;1.66;100.00;98008.13;4968309;28;20038;-82
2020/12/29 07:45:34;;;;;;;37.95;27.92;;;;;;;1.64;100.00;98020.69;4965520;28;20056;-86
2020/12/29 07:48:00;;;;;;;40.30;30.85;;;;;;;1.70;100.00;98022.66;4950629;28;20503;-83
2020/12/29 07:50:26;;;;;;;40.28;29.88;;;;;;;1.71;100.00;98024.31;4968279;28;20055;-89
2020/12/29 07:53:06;;;;;;;39.97;28.77;;;;;;;1.73;100.00;98028.41;4953876;28;20109;-84
2020/12/29 07:55:33;;;;;;;41.75;28.88;;;;;;;1.74;100.00;98035.34;4942676;28;20057;-85
2020/12/29 07:58:06;;;;;;;38.88;28.67;;;;;;;1.74;100.00;98045.91;4958720;28;20034;-87
2020/12/29 08:00:39;;;;;;;37.33;28.50;;;;;;;1.76;100.00;98043.13;4972064;28;20039;-85
2020/12/29 08:03:05;;;;;;;42.45;29.02;;;;;;;1.79;100.00;98055.97;4970696;28;20026;-87
2020/12/29 08:05:33;;;;;;;39.67;27.25;;;;;;;1.79;100.00;98046.22;4973014;28;20479;-86
2020/12/29 08:08:07;;;;;;;38.92;26.48;;;;;;;1.84;100.00;98063.38;4979563;28;20129;-87
2020/12/29 08:10:34;;;;;;;35.53;25.70;;;;;;;1.84;100.00;98063.38;4986230;28;20072;-86
2020/12/29 08:13:02;;;;;;;36.00;24.92;;;;;;;1.88;100.00;98059.41;4972255;28;20039;-85
2020/12/29 08:15:30;;;;;;;37.85;25.10;;;;;;;1.90;100.00;98070.59;4971432;28;20051;-84
2020/12/29 08:18:12;;;;;;;34.60;25.00;;;;;;;1.92;100.00;98063.31;4955574;28;20048;-86
2020/12/29 08:20:54;;;;;;;36.60;24.15;;;;;;;1.90;100.00;98076.75;4951092;28;20399;-84
2020/12/29 08:23:21;;;;;;;35.40;24.35;;;;;;;1.94;100.00;98083.31;4960392;28;20491;-87
2020/12/29 08:25:51;;;;;;;35.58;22.23;;;;;;;1.96;100.00;98086.63;4975531;28;20491;-86
2020/12/29 08:28:16;;;;;;;34.47;23.60;;;;;;;2.01;100.00;98086.91;4971230;28;20042;-84
2020/12/29 08:30:42;;;;;;;34.17;24.73;;;;;;;2.03;100.00;98089.38;4988046;28;20048;-87
2020/12/29 08:33:08;;;;;;;37.78;27.02;;;;;;;2.05;100.00;98094.50;4970567;28;20061;-86
2020/12/29 08:35:55;;;;;;;37.08;24.20;;;;;;;2.08;100.00;98096.78;4979350;28;20153;-86
2020/12/29 08:38:26;;;;;;;32.58;20.20;;;;;;;2.07;100.00;98103.88;4987528;28;20077;-87
2020/12/29 08:41:04;;;;;;;34.53;23.15;;;;;;;2.10;100.00;98105.34;4989419;28;20045;-86
2020/12/29 08:43:30;;;;;;;36.08;24.02;;;;;;;2.13;100.00;98105.00;4969813;28;20053;-85
2020/12/29 08:46:06;;;;;;;38.20;26.60;;;;;;;2.13;100.00;98115.59;4957073;28;20116;-82
2020/12/29 08:48:32;;;;;;;41.20;25.95;;;;;;;2.14;100.00;98115.44;4954940;28;20069;-86
2020/12/29 08:50:59;;;;;;;39.22;24.50;;;;;;;2.14;100.00;98125.19;4980422;28;20451;-88
2020/12/29 08:53:25;;;;;;;41.90;28.40;;;;;;;2.16;100.00;98129.31;4988045;28;20070;-87
2020/12/29 08:55:51;;;;;;;41.05;27.13;;;;;;;2.17;100.00;98135.41;4973789;28;20095;-84
2020/12/29 08:58:26;;;;;;;42.63;28.60;;;;;;;2.20;100.00;98135.06;4972055;28;20038;-83
2020/12/29 09:00:53;;;;;;;42.95;26.98;;;;;;;2.18;100.00;98137.06;4973767;28;20097;-89
2020/12/29 09:03:22;;;;;;;45.45;28.13;;;;;;;2.21;100.00;98147.28;4983825;28;20045;-85
2020/12/29 09:05:53;;;;;;;40.30;26.85;;;;;;;2.18;100.00;98158.22;4970283;28;20106;-84
2020/12/29 09:08:28;;;;;;;44.03;30.25;;;;;;;2.24;100.00;98152.22;4986209;28;20035;-90
2020/12/29 09:11:13;;;;;;;44.45;26.95;;;;;;;2.19;100.00;98163.34;4982242;28;20066;-86
2020/12/29 09:14:02;;;;;;;45.25;27.60;;;;;;;2.20;100.00;98167.63;4988915;28;20041;-83
2020/12/29 09:16:27;;;;;;;52.57;32.50;;;;;;;2.21;100.00;98165.81;4973537;28;20050;-85
2020/12/29 09:18:52;;;;;;;56.92;35.70;;;;;;;2.23;100.00;98174.41;4953775;28;20286;-83
2020/12/29 09:21:25;;;;;;;53.40;35.78;;;;;;;2.24;100.00;98178.69;4966777;28;20087;-87
2020/12/29 09:24:00;;;;;;;50.40;32.00;;;;;;;2.22;100.00;98178.06;4966365;28;20511;-82
2020/12/29 09:26:25;;;;;;;56.80;35.70;;;;;;;2.26;100.00;98187.28;4968689;28;20050;-84
2020/12/29 09:28:51;;;;;;;56.85;39.78;;;;;;;2.30;100.00;98188.56;4953544;28;20142;-87
2020/12/29 09:31:26;;;;;;;62.95;41.15;;;;;;;2.30;100.00;98196.50;4967440;28;20527;-87
2020/12/29 09:33:51;;;;;;;57.17;35.67;;;;;;;2.30;100.00;98195.69;4964121;28;20070;-84
2020/12/29 09:36:19;;;;;;;59.47;37.28;;;;;;;2.29;100.00;98205.47;4952427;28;20074;-84
2020/12/29 09:38:46;;;;;;;57.80;39.15;;;;;;;2.33;100.00;98212.06;4952792;28;20039;-84
2020/12/29 09:41:11;;;;;;;59.67;37.88;;;;;;;2.34;100.00;98203.13;4952013;28;20051;-85
2020/12/29 09:43:37;;;;;;;62.47;40.00;;;;;;;2.38;100.00;98217.63;4952626;28;20145;-86
2020/12/29 09:46:02;;;;;;;62.63;36.30;;;;;;;2.37;100.00;98221.28;4949246;28;20102;-86
2020/12/29 09:48:28;;;;;;;60.25;38.38;;;;;;;2.39;100.00;98219.31;4966467;28;20067;-85
2020/12/29 09:50:54;;;;;;;62.38;37.60;;;;;;;2.39;100.00;98229.91;4968506;28;20484;-85
2020/12/29 09:53:20;;;;;;;62.17;41.42;;;;;;;2.42;100.00;98228.72;4954821;28;20098;-84
2020/12/29 09:55:45;;;;;;;58.60;35.83;;;;;;;2.40;100.00;98236.81;4969698;28;20039;-84
2020/12/29 09:58:10;;;;;;;55.08;35.67;;;;;;;2.42;100.00;98237.47;4967668;28;20476;-85
2020/12/29 10:00:36;;;;;;;57.80;40.38;;;;;;;2.44;100.00;98243.41;4951673;28;20074;-87
2020/12/29 10:03:01;;;;;;;58.72;33.65;;;;;;;2.43;100.00;98249.72;4949444;28;20043;-84
2020/12/29 10:05:27;;;;;;;63.25;42.65;;;;;;;2.47;100.00;98247.53;4955168;28;20035;-83
2020/12/29 10:07:53;;;;;;;60.60;38.08;;;;;;;2.47;100.00;98247.53;4967944;28;20047;-86
2020/12/29 10:10:18;;;;;;;53.33;34.65;;;;;;;2.46;100.00;98254.66;4950630;28;20054;-85
2020/12/29 10:12:44;;;;;;;64.38;41.78;;;;;;;2.49;100.00;98250.84;4970498;28;20652;-85
2020/12/29 10:15:09;;;;;;;65.45;45.60;;;;;;;2.49;100.00;98251.66;4953327;28;20047;-86
2020/12/29 10:17:36;;;;;;;71.95;44.80;;;;;;;2.53;100.00;98256.59;4969431;28;20062;-85
2020/12/29 10:20:02;;;;;;;60.92;40.15;;;;;;;2.46;100.00;98254.66;4967547;28;20043;-88
2020/12/29 10:22:28;;;;;;;74.55;50.10;;;;;;;2.48;100.00;98260.59;4952438;28;20074;-85
2020/12/29 10:24:54;;;;;;;68.45;41.67;;;;;;;2.46;100.00;98259.13;4950137;28;20058;-85
2020/12/29 10:27:19;;;;;;;69.53;42.05;;;;;;;2.45;100.00;98255.66;4968142;28;20459;-86
2020/12/29 10:29:45;;;;;;;60.60;38.47;;;;;;;2.44;100.00;98269.06;4966546;28;20043;-84
2020/12/29 10:32:10;;;;;;;55.47;32.88;;;;;;;2.41;100.00;98269.41;4965070;28;20149;-85
2020/12/29 10:34:36;;;;;;;57.53;38.72;;;;;;;2.43;100.00;98276.19;4965066;28;20130;-83
2020/12/29 10:37:01;;;;;;;56.33;37.90;;;;;;;2.43;100.00;98281.47;4965133;28;20037;-84
2020/12/29 10:39:26;;;;;;;64.38;39.08;;;;;;;2.42;100.00;98276.38;4962540;28;20102;-87
2020/12/29 10:41:52;;;;;;;64.30;38.55;;;;;;;2.40;100.00;98276.53;4953837;28;20071;-83
2020/12/29 10:44:17;;;;;;;61.85;35.38;;;;;;;2.45;100.00;98273.38;4966136;28;20051;-85
2020/12/29 10:46:46;;;;;;;67.00;41.78;;;;;;;2.44;100.00;98275.16;4966960;28;20047;-84
2020/12/29 10:49:12;;;;;;;59.45;35.05;;;;;;;2.43;100.00;98280.66;4951723;28;20480;-83
2020/12/29 10:51:37;;;;;;;62.03;40.78;;;;;;;2.45;100.00;98274.19;4963350;28;20043;-85
2020/12/29 10:54:03;;;;;;;61.78;35.40;;;;;;;2.43;100.00;98278.81;4963171;28;20404;-84
2020/12/29 10:56:28;;;;;;;61.03;36.40;;;;;;;2.46;100.00;98289.06;4951543;28;20401;-84
2020/12/29 10:58:54;;;;;;;62.45;42.05;;;;;;;2.47;100.00;98285.44;4961956;28;20073;-84
2020/12/29 11:01:21;;;;;;;61.65;38.22;;;;;;;2.49;100.00;98298.50;4969347;28;20074;-84
2020/12/29 11:03:47;;;;;;;60.30;37.97;;;;;;;2.48;100.00;98313.56;4958480;28;20031;-83
2020/12/29 11:06:17;;;;;;;59.72;39.00;;;;;;;2.50;100.00;98313.38;4951418;28;20065;-83
2020/12/29 11:08:43;;;;;;;67.90;42.75;;;;;;;2.54;100.00;98314.69;4947839;28;20430;-86
2020/12/29 11:11:09;;;;;;;62.30;32.47;;;;;;;2.52;100.00;98314.03;4968703;28;20486;-85
2020/12/29 11:13:34;;;;;;;55.75;35.45;;;;;;;2.53;100.00;98312.19;4967920;28;20134;-88
2020/12/29 11:16:00;;;;;;;54.75;33.05;;;;;;;2.53;100.00;98313.00;4950827;28;20042;-88
2020/12/29 11:18:25;;;;;;;60.83;37.05;;;;;;;2.55;100.00;98315.50;4939906;28;20447;-86
2020/12/29 11:20:52;;;;;;;58.05;35.50;;;;;;;2.56;100.00;98322.44;4969809;28;20043;-86
2020/12/29 11:23:17;;;;;;;58.53;37.30;;;;;;;2.59;100.00;98335.34;4968293;28;20086;-85